Time;durP1;ratioP1;P1;durP2;ratioP2;P2;SDS_P1;SDS_P2;PMS_P1;PMS_P2;Temp;Humidity;BMP_temperature;BMP_pressure;BME280_temperature;BME280_humidity;BME280_pressure;Samples;Min_cycle;Max_cycle;Signal;HPM_P1;HPM_P2
2023/05/20 00:00:48;;;;;;;;;;;;;;;17.16;100.00;98047.88;5071037;28;20420;-72
2023/05/20 00:03:16;;;;;;;;;;;;;;;17.30;100.00;98043.25;5082271;28;20630;-72
2023/05/20 00:05:44;;;;;;;;;;;;;;;17.52;100.00;98045.19;5082009;28;19964;-71
2023/05/20 00:08:10;;;;;;;;;;;;;;;17.47;100.00;98046.13;5078885;28;19935;-72
2023/05/20 00:10:37;;;;;;;;;;;;;;;17.34;100.00;98033.47;5077734;28;20087;-73
2023/05/20 00:13:03;;;;;;;;;;;;;;;17.18;100.00;98038.38;5079424;28;20605;-72
2023/05/20 00:15:30;;;;;;;;;;;;;;;17.20;100.00;98040.78;5081179;28;19924;-72
2023/05/20 00:17:56;;;;;;;;;;;;;;;16.99;100.00;98036.94;5079237;28;19984;-73
2023/05/20 00:20:23;;;;;;;;;;;;;;;17.05;100.00;98030.31;5077955;28;19936;-72
2023/05/20 00:22:51;;;;;;;;;;;;;;;17.02;100.00;98028.22;5077348;28;19951;-71
2023/05/20 00:25:17;;;;;;;;;;;;;;;16.91;100.00;98034.91;5073039;28;20459;-72
2023/05/20 00:27:43;;;;;;;;;;;;;;;17.12;100.00;98025.28;5080864;28;19921;-73
2023/05/20 00:30:11;;;;;;;;;;;;;;;16.81;100.00;98014.34;5068319;28;19996;-73
2023/05/20 00:32:37;;;;;;;;;;;;;;;16.47;100.00;98019.28;5077839;28;19929;-72
2023/05/20 00:35:04;;;;;;;;;;;;;;;16.23;100.00;98024.03;5079312;28;19959;-73
2023/05/20 00:37:30;;;;;;;;;;;;;;;16.20;100.00;98017.34;5080815;28;19924;-73
2023/05/20 00:39:58;;;;;;;;;;;;;;;16.23;100.00;98024.84;5080169;28;19924;-72
2023/05/20 00:42:25;;;;;;;;;;;;;;;16.05;100.00;98018.41;5077474;28;19944;-72
2023/05/20 00:44:52;;;;;;;;;;;;;;;16.09;100.00;98016.72;5077465;28;19966;-75
2023/05/20 00:47:19;;;;;;;;;;;;;;;15.85;100.00;98013.34;5079456;28;19924;-73
2023/05/20 00:49:46;;;;;;;;;;;;;;;15.94;100.00;98011.59;5080651;28;19935;-74
2023/05/20 00:52:13;;;;;;;;;;;;;;;15.88;100.00;98018.16;5077606;28;19952;-73
2023/05/20 00:54:40;;;;;;;;;;;;;;;16.18;100.00;98016.84;5077582;28;19971;-74
2023/05/20 00:57:09;;;;;;;;;;;;;;;16.03;100.00;98017.13;5079566;28;19971;-73
2023/05/20 00:59:36;;;;;;;;;;;;;;;15.97;100.00;98016.38;5073341;28;19920;-75
2023/05/20 01:02:03;;;;;;;;;;;;;;;16.40;100.00;98024.28;5070391;28;19988;-73
2023/05/20 01:04:30;;;;;;;;;;;;;;;16.42;100.00;98016.69;5080308;28;19931;-73
2023/05/20 01:06:56;;;;;;;;;;;;;;;16.18;100.00;98014.94;5080087;28;19951;-73
2023/05/20 01:09:23;;;;;;;;;;;;;;;16.35;100.00;98014.38;5077546;28;19921;-72
2023/05/20 01:11:54;;;;;;;;;;;;;;;16.24;100.00;98009.47;5077407;28;19988;-72
2023/05/20 01:14:23;;;;;;;;;;;;;;;15.93;100.00;98012.69;5072728;28;19924;-73
2023/05/20 01:16:51;;;;;;;;;;;;;;;15.93;100.00;98007.31;5080344;28;19924;-73
2023/05/20 01:19:21;;;;;;;;;;;;;;;15.89;100.00;97998.22;5072297;28;19982;-72
2023/05/20 01:21:49;;;;;;;;;;;;;;;15.95;100.00;98009.69;5079245;28;19929;-72
2023/05/20 01:24:16;;;;;;;;;;;;;;;15.86;100.00;97998.81;5077095;28;19924;-73
2023/05/20 01:26:47;;;;;;;;;;;;;;;15.59;100.00;98001.41;5075964;28;20691;-73
2023/05/20 01:29:17;;;;;;;;;;;;;;;15.64;100.00;97999.44;5076892;28;19974;-73
2023/05/20 01:31:44;;;;;;;;;;;;;;;15.31;100.00;97999.63;5075788;28;19934;-72
2023/05/20 01:34:10;;;;;;;;;;;;;;;15.18;100.00;97997.66;5077943;28;19976;-73
2023/05/20 01:36:37;;;;;;;;;;;;;;;15.34;100.00;97997.16;5076570;28;20402;-73
2023/05/20 01:39:04;;;;;;;;;;;;;;;15.24;100.00;97996.50;5078882;28;19980;-72
2023/05/20 01:41:33;;;;;;;;;;;;;;;15.28;100.00;97994.84;5081029;28;19924;-71
2023/05/20 01:44:00;;;;;;;;;;;;;;;15.20;100.00;97990.91;5079841;28;19920;-73
2023/05/20 01:46:26;;;;;;;;;;;;;;;15.32;100.00;97993.94;5077602;28;19960;-73
2023/05/20 01:48:52;;;;;;;;;;;;;;;15.06;100.00;97998.91;5077293;28;19925;-71
2023/05/20 01:51:19;;;;;;;;;;;;;;;15.02;100.00;97986.31;5080714;28;19967;-72
2023/05/20 01:53:45;;;;;;;;;;;;;;;15.24;100.00;97985.75;5080367;28;19924;-72
2023/05/20 01:56:11;;;;;;;;;;;;;;;15.08;100.00;97982.47;5077216;28;19972;-72
2023/05/20 01:58:39;;;;;;;;;;;;;;;15.58;100.00;97984.44;5076074;28;20002;-72
2023/05/20 02:01:05;;;;;;;;;;;;;;;15.41;100.00;97991.44;5076555;28;19956;-73
2023/05/20 02:03:32;;;;;;;;;;;;;;;15.74;100.00;97987.69;5080527;28;19952;-71
2023/05/20 02:05:58;;;;;;;;;;;;;;;15.75;100.00;97986.63;5078577;28;19932;-71
2023/05/20 02:08:24;;;;;;;;;;;;;;;15.98;100.00;97984.88;5076397;28;19936;-71
2023/05/20 02:10:51;;;;;;;;;;;;;;;15.74;100.00;97987.69;5076774;28;19925;-71
2023/05/20 02:13:17;;;;;;;;;;;;;;;15.53;100.00;97978.34;5086111;28;19963;-71
2023/05/20 02:15:45;;;;;;;;;;;;;;;15.47;100.00;97990.25;5084990;28;19988;-71
2023/05/20 02:18:12;;;;;;;;;;;;;;;15.37;100.00;97987.72;5081890;28;19936;-71
2023/05/20 02:20:40;;;;;;;;;;;;;;;15.23;100.00;97986.81;5083185;28;19929;-71
2023/05/20 02:23:07;;;;;;;;;;;;;;;14.99;100.00;97982.31;5085256;28;19925;-71
2023/05/20 02:25:33;;;;;;;;;;;;;;;14.96;100.00;97980.19;5086390;28;19925;-72
2023/05/20 02:28:00;;;;;;;;;;;;;;;15.10;100.00;97981.06;5083904;28;20641;-72
2023/05/20 02:30:27;;;;;;;;;;;;;;;14.90;100.00;97981.34;5074595;28;19967;-71
2023/05/20 02:32:54;;;;;;;;;;;;;;;15.23;100.00;97976.06;5083281;28;19962;-72
2023/05/20 02:35:21;;;;;;;;;;;;;;;15.12;100.00;97978.09;5084808;28;19974;-72
2023/05/20 02:37:47;;;;;;;;;;;;;;;15.03;100.00;97977.16;5085813;28;19963;-71
2023/05/20 02:40:14;;;;;;;;;;;;;;;15.44;100.00;97974.69;5082930;28;19931;-72
2023/05/20 02:42:40;;;;;;;;;;;;;;;15.43;100.00;97976.59;5082276;28;19932;-72
2023/05/20 02:45:08;;;;;;;;;;;;;;;15.31;100.00;97980.81;5084702;28;19956;-71
2023/05/20 02:47:34;;;;;;;;;;;;;;;15.08;100.00;97987.84;5085973;28;19992;-71
2023/05/20 02:50:02;;;;;;;;;;;;;;;14.83;100.00;97980.09;5084380;28;19987;-71
2023/05/20 02:52:28;;;;;;;;;;;;;;;15.01;100.00;97988.19;5082398;28;20133;-71
2023/05/20 02:54:55;;;;;;;;;;;;;;;14.70;100.00;97992.34;5083399;28;19991;-71
2023/05/20 02:57:23;;;;;;;;;;;;;;;14.88;100.00;97988.94;5085523;28;21515;-71
2023/05/20 02:59:51;;;;;;;;;;;;;;;15.13;100.00;97983.19;5077945;28;19932;-70
2023/05/20 03:02:17;;;;;;;;;;;;;;;14.74;100.00;97988.00;5081748;28;19939;-71
2023/05/20 03:04:45;;;;;;;;;;;;;;;14.78;100.00;97988.25;5082730;28;19924;-71
2023/05/20 03:07:13;;;;;;;;;;;;;;;14.73;100.00;97985.63;5085662;28;19987;-71
2023/05/20 03:09:40;;;;;;;;;;;;;;;15.19;100.00;97983.13;5086130;28;19988;-71
2023/05/20 03:12:06;;;;;;;;;;;;;;;14.74;100.00;97993.38;5083775;28;19953;-71
2023/05/20 03:14:32;;;;;;;;;;;;;;;15.09;100.00;97986.75;5082638;28;19988;-72
2023/05/20 03:16:59;;;;;;;;;;;;;;;15.36;100.00;97988.78;5082193;28;19936;-71
2023/05/20 03:19:25;;;;;;;;;;;;;;;15.40;100.00;97981.75;5086119;28;19946;-71
2023/05/20 03:21:52;;;;;;;;;;;;;;;15.24;100.00;97988.44;5085822;28;19925;-71
2023/05/20 03:24:22;;;;;;;;;;;;;;;15.29;100.00;97985.69;5077504;28;19925;-72
2023/05/20 03:26:48;;;;;;;;;;;;;;;15.22;100.00;97982.56;5079013;28;19928;-71
2023/05/20 03:29:15;;;;;;;;;;;;;;;15.43;100.00;97991.91;5078916;28;19967;-72
2023/05/20 03:31:41;;;;;;;;;;;;;;;15.58;100.00;97987.13;5077973;28;19924;-71
2023/05/20 03:34:08;;;;;;;;;;;;;;;15.81;100.00;97985.44;5080302;28;19974;-71
2023/05/20 03:36:34;;;;;;;;;;;;;;;15.26;100.00;97984.34;5077801;28;19925;-72
2023/05/20 03:39:01;;;;;;;;;;;;;;;15.35;100.00;97989.91;5080433;28;20649;-71
2023/05/20 03:41:31;;;;;;;;;;;;;;;15.17;100.00;97983.41;5082496;28;19920;-71
2023/05/20 03:43:58;;;;;;;;;;;;;;;15.33;100.00;97981.28;5081295;28;19952;-71
2023/05/20 03:46:24;;;;;;;;;;;;;;;15.68;100.00;97978.09;5079292;28;19932;-72
2023/05/20 03:48:51;;;;;;;;;;;;;;;15.71;100.00;97974.81;5079045;28;19943;-71
2023/05/20 03:51:17;;;;;;;;;;;;;;;15.63;100.00;97973.59;5070157;28;19935;-72
2023/05/20 03:53:43;;;;;;;;;;;;;;;15.73;100.00;97980.69;5077195;28;19940;-71
2023/05/20 03:56:10;;;;;;;;;;;;;;;15.61;100.00;97989.25;5081734;28;19967;-71
2023/05/20 03:58:38;;;;;;;;;;;;;;;15.17;100.00;97988.78;5081180;28;19931;-71
2023/05/20 04:01:04;;;;;;;;;;;;;;;15.07;100.00;97981.66;5077589;28;19924;-72
2023/05/20 04:03:31;;;;;;;;;;;;;;;14.75;100.00;97984.25;5081627;28;19966;-71
2023/05/20 04:05:57;;;;;;;;;;;;;;;14.91;100.00;97985.66;5080862;28;19962;-71
2023/05/20 04:08:24;;;;;;;;;;;;;;;15.26;100.00;97986.22;5079145;28;19925;-71
2023/05/20 04:10:51;;;;;;;;;;;;;;;14.91;100.00;97996.41;5078455;28;20012;-72
2023/05/20 04:13:17;;;;;;;;;;;;;;;14.72;100.00;97989.38;5070550;28;19932;-71
2023/05/20 04:15:45;;;;;;;;;;;;;;;15.09;100.00;97987.56;5077206;28;19925;-71
2023/05/20 04:18:11;;;;;;;;;;;;;;;15.56;100.00;97977.75;5081802;28;19962;-71
2023/05/20 04:20:40;;;;;;;;;;;;;;;15.47;100.00;97974.91;5082066;28;19924;-71
2023/05/20 04:23:06;;;;;;;;;;;;;;;15.18;100.00;97976.94;5079808;28;20388;-72
2023/05/20 04:25:34;;;;;;;;;;;;;;;15.20;100.00;97984.72;5077606;28;19925;-71
2023/05/20 04:28:01;;;;;;;;;;;;;;;15.30;100.00;97985.38;5078713;28;19964;-70
2023/05/20 04:30:27;;;;;;;;;;;;;;;15.17;100.00;97985.28;5074229;28;20011;-71
2023/05/20 04:32:55;;;;;;;;;;;;;;;15.35;100.00;97987.97;5079109;28;19988;-71
2023/05/20 04:35:24;;;;;;;;;;;;;;;15.01;100.00;97982.00;5081584;28;20343;-70
2023/05/20 04:37:52;;;;;;;;;;;;;;;15.25;100.00;97987.34;5081477;28;19925;-71
2023/05/20 04:40:19;;;;;;;;;;;;;;;15.42;100.00;97991.13;5073306;28;19978;-71
2023/05/20 04:42:46;;;;;;;;;;;;;;;15.59;100.00;97985.25;5081689;28;19920;-71
2023/05/20 04:45:12;;;;;;;;;;;;;;;15.42;100.00;97980.34;5078345;28;19936;-71
2023/05/20 04:47:39;;;;;;;;;;;;;;;15.14;100.00;97976.72;5076464;28;20049;-71
2023/05/20 04:50:09;;;;;;;;;;;;;;;15.08;100.00;97988.66;5079372;28;19921;-71
2023/05/20 04:52:36;;;;;;;;;;;;;;;15.25;100.00;97987.34;5081359;28;19927;-71
2023/05/20 04:55:02;;;;;;;;;;;;;;;15.19;100.00;97978.56;5079157;28;19937;-71
2023/05/20 04:57:29;;;;;;;;;;;;;;;15.35;100.00;97981.81;5076935;28;19947;-70
2023/05/20 04:59:57;;;;;;;;;;;;;;;15.38;100.00;97975.88;5074275;28;19995;-71
2023/05/20 05:02:23;;;;;;;;;;;;;;;15.53;100.00;97976.47;5077016;28;19986;-71
2023/05/20 05:04:50;;;;;;;;;;;;;;;15.61;100.00;97967.72;5077393;28;19935;-71
2023/05/20 05:07:18;;;;;;;;;;;;;;;15.64;100.00;97975.19;5077420;28;19936;-71
2023/05/20 05:09:44;;;;;;;;;;;;;;;15.53;100.00;97972.97;5077399;28;19931;-71
2023/05/20 05:12:10;;;;;;;;;;;;;;;15.64;100.00;97979.78;5079802;28;19935;-71
2023/05/20 05:14:37;;;;;;;;;;;;;;;15.81;100.00;97981.94;5080808;28;19925;-71
2023/05/20 05:17:03;;;;;;;;;;;;;;;15.89;100.00;97981.25;5078835;28;19951;-71
2023/05/20 05:19:29;;;;;;;;;;;;;;;15.61;100.00;97980.38;5077412;28;19956;-71
2023/05/20 05:21:56;;;;;;;;;;;;;;;15.72;100.00;97979.09;5077929;28;19952;-71
2023/05/20 05:24:24;;;;;;;;;;;;;;;15.61;100.00;97980.38;5080701;28;19956;-71
2023/05/20 05:26:53;;;;;;;;;;;;;;;15.60;100.00;97978.75;5080404;28;19929;-71
2023/05/20 05:29:19;;;;;;;;;;;;;;;15.55;100.00;97971.56;5067519;28;20348;-71
2023/05/20 05:31:46;;;;;;;;;;;;;;;15.64;100.00;97979.78;5076569;28;19955;-71
2023/05/20 05:34:12;;;;;;;;;;;;;;;15.75;100.00;97973.16;5079818;28;19924;-71
2023/05/20 05:36:39;;;;;;;;;;;;;;;16.05;100.00;97974.50;5079661;28;19981;-70
2023/05/20 05:39:05;;;;;;;;;;;;;;;16.15;100.00;97977.03;5076464;28;20015;-70
2023/05/20 05:41:34;;;;;;;;;;;;;;;16.04;100.00;97968.31;5076253;28;19931;-71
2023/05/20 05:44:00;;;;;;;;;;;;;;;16.17;100.00;97967.56;5077484;28;19924;-71
2023/05/20 05:46:27;;;;;;;;;;;;;;;16.43;100.00;97964.38;5079070;28;19925;-71
2023/05/20 05:48:53;;;;;;;;;;;;;;;16.80;100.00;97963.41;5079287;28;19952;-71
2023/05/20 05:51:19;;;;;;;;;;;;;;;17.01;100.00;97959.97;5075969;28;19925;-71
2023/05/20 05:53:46;;;;;;;;;;;;;;;17.16;100.00;97951.53;5074868;28;19967;-71
2023/05/20 05:56:12;;;;;;;;;;;;;;;17.35;100.00;97947.88;5079196;28;19964;-72
2023/05/20 05:58:40;;;;;;;;;;;;;;;17.58;100.00;97960.31;5078577;28;19959;-72
2023/05/20 06:01:06;;;;;;;;;;;;;;;17.57;100.00;97956.84;5070345;28;19925;-72
2023/05/20 06:03:33;;;;;;;;;;;;;;;17.71;100.00;97959.44;5080072;28;19925;-72
2023/05/20 06:05:59;;;;;;;;;;;;;;;17.84;100.00;97955.88;5078675;28;19993;-71
2023/05/20 06:08:26;;;;;;;;;;;;;;;18.04;100.00;97949.94;5076399;28;19935;-71
2023/05/20 06:10:52;;;;;;;;;;;;;;;18.06;100.00;97945.06;5075815;28;19947;-71
2023/05/20 06:13:20;;;;;;;;;;;;;;;18.13;100.00;97942.72;5079208;28;19984;-71
2023/05/20 06:15:48;;;;;;;;;;;;;;;18.20;100.00;97950.34;5078991;28;19987;-71
2023/05/20 06:18:15;;;;;;;;;;;;;;;18.39;100.00;97944.69;5075828;28;19991;-71
2023/05/20 06:20:41;;;;;;;;;;;;;;;18.41;100.00;97950.63;5075899;28;19928;-71
2023/05/20 06:23:08;;;;;;;;;;;;;;;18.58;100.00;97942.56;5077983;28;19947;-71
2023/05/20 06:25:34;;;;;;;;;;;;;;;18.61;100.00;97952.78;5079677;28;19931;-70
2023/05/20 06:28:00;;;;;;;;;;;;;;;18.75;100.00;97953.47;5078532;28;19920;-71
2023/05/20 06:30:27;;;;;;;;;;;;;;;18.82;100.00;97951.06;5068119;28;19956;-71
2023/05/20 06:32:54;;;;;;;;;;;;;;;18.83;100.00;97945.34;5076288;28;19968;-71
2023/05/20 06:35:21;;;;;;;;;;;;;;;18.97;100.00;97934.38;5079706;28;20056;-71
2023/05/20 06:37:47;;;;;;;;;;;;;;;19.21;100.00;97937.47;5079747;28;20370;-71
2023/05/20 06:40:14;;;;;;;;;;;;;;;19.32;100.00;97933.31;5076459;28;19967;-71
2023/05/20 06:42:40;;;;;;;;;;;;;;;19.12;100.00;97935.84;5076167;28;19925;-71
2023/05/20 06:45:07;;;;;;;;;;;;;;;19.42;100.00;97934.13;5077664;28;19925;-72
2023/05/20 06:47:33;;;;;;;;;;;;;;;19.51;100.00;97929.50;5077358;28;19983;-71
2023/05/20 06:50:01;;;;;;;;;;;;;;;19.62;100.00;97928.06;5076150;28;19967;-72
2023/05/20 06:52:27;;;;;;;;;;;;;;;19.32;100.00;97935.22;5075449;28;19932;-71
2023/05/20 06:54:54;;;;;;;;;;;;;;;19.34;100.00;97927.59;5075670;28;19925;-71
2023/05/20 06:57:21;;;;;;;;;;;;;;;19.27;100.00;97938.09;5074445;28;20027;-71
2023/05/20 06:59:47;;;;;;;;;;;;;;;19.40;100.00;97927.09;5076672;28;19952;-71
2023/05/20 07:02:14;;;;;;;;;;;;;;;19.19;100.00;97920.72;5086004;28;19980;-71
2023/05/20 07:04:40;;;;;;;;;;;;;;;19.29;100.00;97928.53;5079041;28;19920;-71
2023/05/20 07:07:08;;;;;;;;;;;;;;;19.25;100.00;97926.75;5079768;28;19936;-71
2023/05/20 07:09:35;;;;;;;;;;;;;;;19.48;100.00;97933.66;5082386;28;19924;-71
2023/05/20 07:12:02;;;;;;;;;;;;;;;19.41;100.00;97922.50;5079571;28;20000;-72
2023/05/20 07:14:28;;;;;;;;;;;;;;;19.72;100.00;97925.00;5079211;28;19928;-72
2023/05/20 07:16:55;;;;;;;;;;;;;;;19.39;100.00;97922.81;5078812;28;19974;-71
2023/05/20 07:19:21;;;;;;;;;;;;;;;19.37;100.00;97930.44;5082841;28;19947;-72
2023/05/20 07:21:48;;;;;;;;;;;;;;;19.27;100.00;97927.25;5083008;28;19925;-72
2023/05/20 07:24:16;;;;;;;;;;;;;;;19.27;100.00;97919.13;5079819;28;19925;-72
2023/05/20 07:26:42;;;;;;;;;;;;;;;19.57;100.00;97917.38;5079209;28;19959;-72
2023/05/20 07:29:09;;;;;;;;;;;;;;;19.82;100.00;97924.69;5078068;28;19952;-72
2023/05/20 07:31:35;;;;;;;;;;;;;;;20.21;100.00;97915.50;5076900;28;19928;-72
2023/05/20 07:34:02;;;;;;;;;;;;;;;19.94;100.00;97924.81;5081213;28;19987;-72
2023/05/20 07:36:29;;;;;;;;;;;;;;;19.61;100.00;97911.00;5079204;28;20279;-71
2023/05/20 07:38:55;;;;;;;;;;;;;;;19.42;100.00;97907.03;5079473;28;19925;-71
2023/05/20 07:41:23;;;;;;;;;;;;;;;19.28;100.00;97907.19;5081259;28;19927;-72
2023/05/20 07:43:49;;;;;;;;;;;;;;;19.31;100.00;97906.56;5081195;28;19932;-71
2023/05/20 07:46:16;;;;;;;;;;;;;;;19.43;100.00;97908.66;5079204;28;19925;-71
2023/05/20 07:48:43;;;;;;;;;;;;;;;19.83;100.00;97910.00;5078737;28;19925;-71
2023/05/20 07:51:10;;;;;;;;;;;;;;;19.71;100.00;97910.66;5081393;28;19952;-71
2023/05/20 07:53:36;;;;;;;;;;;;;;;19.71;100.00;97901.75;5082240;28;19924;-72
2023/05/20 07:56:03;;;;;;;;;;;;;;;19.82;100.00;97903.78;5079593;28;20016;-71
2023/05/20 07:58:31;;;;;;;;;;;;;;;19.87;100.00;97891.97;5077457;28;19950;-71
2023/05/20 08:00:57;;;;;;;;;;;;;;;19.71;100.00;97894.41;5079577;28;19925;-72
2023/05/20 08:03:24;;;;;;;;;;;;;;;19.84;100.00;97887.19;5081957;28;20334;-72
2023/05/20 08:05:50;;;;;;;;;;;;;;;19.73;100.00;97883.25;5082173;28;19959;-72
2023/05/20 08:08:16;;;;;;;;;;;;;;;19.88;100.00;97885.44;5077392;28;19925;-72
2023/05/20 08:10:43;;;;;;;;;;;;;;;19.91;99.59;97890.22;5077744;28;19928;-72
2023/05/20 08:13:09;;;;;;;;;;;;;;;19.86;100.00;97891.19;5080796;28;19976;-72
2023/05/20 08:15:37;;;;;;;;;;;;;;;19.91;100.00;97895.63;5081942;28;20410;-71
2023/05/20 08:18:03;;;;;;;;;;;;;;;20.01;100.00;97883.66;5079955;28;19967;-71
2023/05/20 08:20:30;;;;;;;;;;;;;;;20.10;100.00;97896.06;5078246;28;19925;-72
2023/05/20 08:22:56;;;;;;;;;;;;;;;20.09;99.50;97882.81;5078849;28;19947;-71
2023/05/20 08:25:23;;;;;;;;;;;;;;;20.03;98.55;97884.91;5081759;28;20246;-72
2023/05/20 08:27:49;;;;;;;;;;;;;;;20.12;99.55;97874.81;5081886;28;19931;-71
2023/05/20 08:30:16;;;;;;;;;;;;;;;20.20;99.95;97884.06;5072573;28;19964;-71
2023/05/20 08:32:43;;;;;;;;;;;;;;;20.72;96.14;97882.69;5078217;28;19992;-71
2023/05/20 08:35:11;;;;;;;;;;;;;;;20.34;97.11;97881.94;5080736;28;19983;-71
2023/05/20 08:37:37;;;;;;;;;;;;;;;20.28;98.84;97881.31;5081624;28;19936;-72
2023/05/20 08:40:05;;;;;;;;;;;;;;;20.32;97.88;97871.44;5078453;28;19972;-72
2023/05/20 08:42:31;;;;;;;;;;;;;;;20.37;99.29;97875.84;5077267;28;19935;-72
2023/05/20 08:44:59;;;;;;;;;;;;;;;20.64;98.05;97882.75;5078170;28;19924;-72
2023/05/20 08:47:26;;;;;;;;;;;;;;;20.68;97.23;97881.75;5080563;28;19924;-70
2023/05/20 08:49:54;;;;;;;;;;;;;;;20.61;97.55;97884.19;5081258;28;19925;-72
2023/05/20 08:52:21;;;;;;;;;;;;;;;20.53;98.91;97878.81;5078114;28;19960;-72
2023/05/20 08:54:49;;;;;;;;;;;;;;;20.55;99.75;97882.00;5078030;28;19925;-72
2023/05/20 08:57:15;;;;;;;;;;;;;;;20.57;99.57;97875.13;5080981;28;19924;-73
2023/05/20 08:59:43;;;;;;;;;;;;;;;20.69;99.30;97867.06;5076819;28;19925;-71
2023/05/20 09:02:09;;;;;;;;;;;;;;;20.74;98.72;97864.13;5076965;28;19924;-71
2023/05/20 09:04:36;;;;;;;;;;;;;;;20.73;100.00;97883.47;5077192;28;20322;-71
2023/05/20 09:07:04;;;;;;;;;;;;;;;20.74;100.00;97871.47;5078576;28;19951;-71
2023/05/20 09:09:33;;;;;;;;;;;;;;;20.83;99.43;97875.72;5080544;28;20480;-72
2023/05/20 09:12:00;;;;;;;;;;;;;;;21.00;99.15;97870.19;5079388;28;19935;-72
2023/05/20 09:14:27;;;;;;;;;;;;;;;20.86;99.00;97869.66;5077179;28;19943;-72
2023/05/20 09:16:53;;;;;;;;;;;;;;;20.91;100.00;97869.47;5077324;28;19931;-72
2023/05/20 09:19:20;;;;;;;;;;;;;;;20.89;98.73;97866.25;5080359;28;20001;-72
2023/05/20 09:21:46;;;;;;;;;;;;;;;21.09;99.74;97864.72;5079719;28;20000;-72
2023/05/20 09:24:14;;;;;;;;;;;;;;;21.27;99.99;97860.72;5077566;28;19925;-72
2023/05/20 09:26:40;;;;;;;;;;;;;;;21.39;99.86;97866.19;5075867;28;19947;-72
2023/05/20 09:29:07;;;;;;;;;;;;;;;21.36;97.64;97850.56;5084552;28;19963;-72
2023/05/20 09:31:34;;;;;;;;;;;;;;;21.22;99.59;97852.78;5080507;28;19925;-72
2023/05/20 09:34:01;;;;;;;;;;;;;;;21.31;100.00;97848.06;5078047;28;19959;-72
2023/05/20 09:36:28;;;;;;;;;;;;;;;21.57;100.00;97849.75;5076953;28;19925;-72
2023/05/20 09:38:56;;;;;;;;;;;;;;;21.74;97.92;97853.06;5077139;28;19932;-72
2023/05/20 09:41:30;;;;;;;;;;;;;;;21.79;97.71;97849.31;5080220;28;19959;-72
2023/05/20 09:43:57;;;;;;;;;;;;;;;21.89;96.08;97840.75;5079583;28;19925;-72
2023/05/20 09:46:24;;;;;;;;;;;;;;;21.85;97.41;97846.03;5077321;28;19924;-72
2023/05/20 09:48:51;;;;;;;;;;;;;;;21.90;94.92;97831.47;5077268;28;19931;-72
2023/05/20 09:51:17;;;;;;;;;;;;;;;21.90;89.33;97829.56;5077004;28;19951;-72
2023/05/20 09:53:44;;;;;;;;;;;;;;;21.99;92.98;97834.91;5077113;28;19920;-72
2023/05/20 09:56:11;;;;;;;;;;;;;;;22.20;87.24;97841.00;5079469;28;19932;-72
2023/05/20 09:58:39;;;;;;;;;;;;;;;22.08;86.67;97832.84;5079363;28;19986;-72
2023/05/20 10:01:05;;;;;;;;;;;;;;;22.07;89.89;97820.38;5070221;28;19952;-72
2023/05/20 10:03:32;;;;;;;;;;;;;;;22.26;90.59;97815.16;5079022;28;19987;-72
2023/05/20 10:06:07;;;;;;;;;;;;;;;22.39;90.11;97821.41;5079091;28;19928;-72
2023/05/20 10:08:51;;;;;;;;;;;;;;;22.42;88.73;97820.72;5076688;28;19925;-72
2023/05/20 10:11:22;;;;;;;;;;;;;;;22.57;87.49;97828.19;5072803;28;19925;-72
2023/05/20 10:14:16;;;;;;;;;;;;;;;22.57;78.30;97812.66;5076390;28;19925;-72
2023/05/20 10:16:45;;;;;;;;;;;;;;;22.38;78.31;97820.59;5044116;28;19925;-72
2023/05/20 10:19:16;;;;;;;;;;;;;;;22.57;76.81;97833.63;5078625;28;19984;-72
2023/05/20 10:21:43;;;;;;;;;;;;;;;22.64;75.14;97814.00;5079215;28;19964;-72
2023/05/20 10:24:10;;;;;;;;;;;;;;;22.57;75.26;97818.09;5076772;28;19920;-72
2023/05/20 10:26:37;;;;;;;;;;;;;;;22.44;76.17;97813.78;5075837;28;19987;-72
2023/05/20 10:29:14;;;;;;;;;;;;;;;22.60;75.24;97809.22;5079033;28;19943;-72
2023/05/20 10:31:48;;;;;;;;;;;;;;;22.79;75.17;97816.03;5075101;28;19931;-72
2023/05/20 10:34:15;;;;;;;;;;;;;;;22.74;71.05;97817.06;5080498;28;19925;-72
2023/05/20 10:36:45;;;;;;;;;;;;;;;22.62;73.71;97819.00;5080577;28;20408;-72
2023/05/20 10:39:15;;;;;;;;;;;;;;;22.63;76.01;97806.94;5083694;28;19925;-72
2023/05/20 10:41:41;;;;;;;;;;;;;;;22.88;76.19;97803.84;5083283;28;19932;-72
2023/05/20 10:44:08;;;;;;;;;;;;;;;23.11;77.07;97806.84;5082172;28;20027;-72
2023/05/20 10:46:34;;;;;;;;;;;;;;;23.10;70.94;97792.44;5078907;28;19967;-72
2023/05/20 10:49:03;;;;;;;;;;;;;;;23.12;71.73;97805.69;5081654;28;19925;-72
2023/05/20 10:51:31;;;;;;;;;;;;;;;22.99;72.76;97793.28;5085357;28;19931;-72
2023/05/20 10:53:58;;;;;;;;;;;;;;;22.90;74.01;97793.41;5084473;28;19956;-72
2023/05/20 10:56:25;;;;;;;;;;;;;;;22.70;74.19;97793.59;5081464;28;19947;-71
2023/05/20 10:58:52;;;;;;;;;;;;;;;22.68;76.11;97802.13;5086173;28;19982;-71
2023/05/20 11:01:19;;;;;;;;;;;;;;;22.58;75.52;97791.66;5079584;28;20039;-71
2023/05/20 11:03:46;;;;;;;;;;;;;;;22.87;77.30;97787.88;5079822;28;19925;-71
2023/05/20 11:06:14;;;;;;;;;;;;;;;23.19;76.41;97783.31;5082541;28;19928;-72
2023/05/20 11:08:41;;;;;;;;;;;;;;;23.30;72.51;97784.41;5082969;28;19925;-71
2023/05/20 11:11:07;;;;;;;;;;;;;;;23.33;71.62;97779.06;5080530;28;19960;-71
2023/05/20 11:13:34;;;;;;;;;;;;;;;23.14;71.59;97781.63;5079498;28;19956;-72
2023/05/20 11:16:15;;;;;;;;;;;;;;;23.27;71.20;97779.66;5080384;28;20008;-72
2023/05/20 11:18:42;;;;;;;;;;;;;;;23.22;69.76;97779.88;5082198;28;19926;-72
2023/05/20 11:21:08;;;;;;;;;;;;;;;22.95;69.26;97770.59;5080136;28;19974;-72
2023/05/20 11:23:37;;;;;;;;;;;;;;;22.96;67.94;97774.91;5079017;28;19925;-72
2023/05/20 11:26:04;;;;;;;;;;;;;;;23.10;65.46;97769.84;5080989;28;19935;-73
2023/05/20 11:28:32;;;;;;;;;;;;;;;23.31;64.71;97764.16;5083421;28;19924;-72
2023/05/20 11:30:59;;;;;;;;;;;;;;;23.16;62.67;97768.44;5072063;28;19940;-72
2023/05/20 11:33:26;;;;;;;;;;;;;;;23.37;64.19;97774.47;5084036;28;19943;-71
2023/05/20 11:35:53;;;;;;;;;;;;;;;23.42;63.73;97776.19;5083355;28;19924;-71
2023/05/20 11:38:20;;;;;;;;;;;;;;;23.36;64.34;97775.63;5079594;28;19972;-72
2023/05/20 11:40:51;;;;;;;;;;;;;;;23.32;65.10;97768.47;5078068;28;19929;-71
2023/05/20 11:43:17;;;;;;;;;;;;;;;23.21;66.88;97773.63;5079364;28;19929;-72
2023/05/20 11:45:44;;;;;;;;;;;;;;;23.43;64.49;97770.38;5078149;28;19988;-72
2023/05/20 11:48:11;;;;;;;;;;;;;;;23.58;64.89;97768.81;5082075;28;19956;-72
2023/05/20 11:50:39;;;;;;;;;;;;;;;23.67;63.91;97770.22;5081285;28;19988;-72
2023/05/20 11:53:07;;;;;;;;;;;;;;;23.78;61.81;97756.84;5080520;28;19938;-73
2023/05/20 11:55:37;;;;;;;;;;;;;;;23.87;62.50;97764.84;5078588;28;20082;-72
2023/05/20 11:58:04;;;;;;;;;;;;;;;23.88;60.95;97761.78;5079823;28;19947;-72
2023/05/20 12:00:31;;;;;;;;;;;;;;;23.83;60.77;97764.00;5076458;28;20337;-72
2023/05/20 12:02:57;;;;;;;;;;;;;;;23.87;60.83;97749.28;5079002;28;20277;-72
2023/05/20 12:05:24;;;;;;;;;;;;;;;23.77;62.42;97754.50;5081754;28;19924;-72
2023/05/20 12:07:50;;;;;;;;;;;;;;;23.80;62.58;97754.56;5080419;28;19925;-72
2023/05/20 12:10:16;;;;;;;;;;;;;;;23.58;62.35;97761.41;5078417;28;19971;-72
2023/05/20 12:12:44;;;;;;;;;;;;;;;23.61;62.01;97763.44;5078465;28;19984;-74
2023/05/20 12:15:12;;;;;;;;;;;;;;;23.33;62.66;97757.25;5079633;28;19929;-74
2023/05/20 12:17:46;;;;;;;;;;;;;;;23.48;61.97;97761.94;5082002;28;19925;-74
2023/05/20 12:20:13;;;;;;;;;;;;;;;23.43;61.63;97762.19;5079601;28;19936;-74
2023/05/20 12:22:39;;;;;;;;;;;;;;;23.34;61.68;97758.81;5078778;28;19932;-74
2023/05/20 12:25:06;;;;;;;;;;;;;;;23.40;62.18;97757.44;5080431;28;19931;-72
2023/05/20 12:27:32;;;;;;;;;;;;;;;23.39;62.64;97755.88;5081785;28;19956;-72
2023/05/20 12:29:59;;;;;;;;;;;;;;;23.44;62.30;97752.09;5085384;28;19971;-72
2023/05/20 12:32:26;;;;;;;;;;;;;;;23.39;61.43;97755.88;5078416;28;19954;-72
2023/05/20 12:34:53;;;;;;;;;;;;;;;23.50;60.85;97751.47;5078317;28;20231;-72
2023/05/20 12:37:19;;;;;;;;;;;;;;;23.46;60.61;97734.25;5080397;28;19931;-72
2023/05/20 12:39:46;;;;;;;;;;;;;;;23.49;60.75;97746.38;5080148;28;19920;-73